createdAt,value
2019-05-07T00:01:23.281Z,90.70
2019-05-07T00:03:53.244Z,90.40
2019-05-07T00:06:23.207Z,90.60
2019-05-07T00:08:52.930Z,90.90
2019-05-07T00:11:22.891Z,90.40
2019-05-07T00:13:53.576Z,90.70
2019-05-07T00:16:23.356Z,91.10
2019-05-07T00:18:53.039Z,91.60
2019-05-07T00:21:23.330Z,91.00
2019-05-07T00:23:54.579Z,91.40
2019-05-07T00:26:24.228Z,90.50
2019-05-07T00:28:54.005Z,91.10
2019-05-07T00:31:24.702Z,91.30
2019-05-07T00:33:54.351Z,90.80
2019-05-07T00:36:33.177Z,91.30
2019-05-07T00:39:15.427Z,91.50
2019-05-07T00:41:52.200Z,91.80
2019-05-07T00:44:22.710Z,91.50
2019-05-07T00:46:52.604Z,91.40
2019-05-07T00:49:24.759Z,92.30
2019-05-07T00:51:54.440Z,92.60
2019-05-07T00:54:24.299Z,93.30
2019-05-07T00:56:54.087Z,94.00
2019-05-07T00:59:23.728Z,93.90
2019-05-07T01:01:53.355Z,93.90
2019-05-07T01:04:23.151Z,92.70
2019-05-07T01:06:53.295Z,94.20
2019-05-07T01:09:23.407Z,93.60
2019-05-07T01:11:53.397Z,92.20
2019-05-07T01:14:23.123Z,92.50
2019-05-07T01:16:53.811Z,93.20
2019-05-07T01:19:23.446Z,91.90
2019-05-07T01:21:53.082Z,91.80
2019-05-07T01:24:23.308Z,92.20
2019-05-07T01:26:53.210Z,92.60
2019-05-07T01:29:23.475Z,92.90
2019-05-07T01:32:07.012Z,93.00
2019-05-07T01:34:43.040Z,93.60
2019-05-07T01:37:12.711Z,93.80
2019-05-07T01:39:42.434Z,93.20
2019-05-07T01:42:12.852Z,93.90
2019-05-07T01:44:42.670Z,92.50
2019-05-07T01:47:13.099Z,93.10
2019-05-07T01:49:43.067Z,93.70
2019-05-07T01:52:13.425Z,93.10
2019-05-07T01:54:47.131Z,93.00
2019-05-07T01:57:15.923Z,92.50
2019-05-07T01:59:45.596Z,92.80
2019-05-07T02:02:22.950Z,92.80
2019-05-07T02:05:05.220Z,92.80
2019-05-07T02:07:42.899Z,92.70
2019-05-07T02:10:35.143Z,92.90
2019-05-07T02:13:05.277Z,92.80
2019-05-07T02:15:35.176Z,92.60
2019-05-07T02:18:05.071Z,92.00
2019-05-07T02:20:35.092Z,93.20
2019-05-07T02:23:05.126Z,93.20
2019-05-07T02:25:34.783Z,92.30
2019-05-07T02:28:04.793Z,92.70
2019-05-07T02:30:35.364Z,92.40
2019-05-07T02:33:05.293Z,92.40
2019-05-07T02:35:35.048Z,92.80
2019-05-07T02:38:13.988Z,92.70
2019-05-07T02:40:48.436Z,93.10
2019-05-07T02:43:18.231Z,92.60
2019-05-07T02:46:19.879Z,93.00
2019-05-07T02:48:37.507Z,92.60
2019-05-07T02:51:13.859Z,92.40
2019-05-07T02:54:03.603Z,93.30
2019-05-07T02:56:33.566Z,93.20
2019-05-07T02:59:04.205Z,93.30
2019-05-07T03:01:34.289Z,93.30
2019-05-07T03:04:04.164Z,93.00
2019-05-07T03:06:34.256Z,93.10
2019-05-07T03:09:05.509Z,93.30
2019-05-07T03:11:35.729Z,93.10
2019-05-07T03:14:05.477Z,93.00
2019-05-07T03:16:43.555Z,92.70
2019-05-07T03:19:07.148Z,93.00
2019-05-07T03:21:55.744Z,92.80
2019-05-07T03:24:43.190Z,93.20
2019-05-07T03:27:14.147Z,93.40
2019-05-07T03:29:48.592Z,92.90
2019-05-07T03:32:28.165Z,93.10
2019-05-07T03:35:06.519Z,92.80
2019-05-07T03:37:37.139Z,93.60
2019-05-07T03:40:07.310Z,93.50
2019-05-07T03:42:37.023Z,93.30
2019-05-07T03:45:13.832Z,92.90
2019-05-07T03:47:45.924Z,93.00
2019-05-07T03:50:15.650Z,93.10
2019-05-07T03:52:45.305Z,93.20
2019-05-07T03:55:15.124Z,93.00
2019-05-07T03:57:45.176Z,92.90
2019-05-07T04:00:15.484Z,93.30
2019-05-07T04:02:45.158Z,93.40
2019-05-07T04:05:14.948Z,93.40
2019-05-07T04:07:44.596Z,94.10
2019-05-07T04:10:15.465Z,94.00
2019-05-07T04:12:45.265Z,94.20
2019-05-07T04:15:19.151Z,93.00
2019-05-07T04:17:46.633Z,94.10
2019-05-07T04:20:16.781Z,94.10
2019-05-07T04:22:46.668Z,93.60
2019-05-07T04:25:38.277Z,93.50
2019-05-07T04:28:17.151Z,93.40
2019-05-07T04:30:46.892Z,93.80
2019-05-07T04:33:18.556Z,93.60
2019-05-07T04:35:57.034Z,93.60
2019-05-07T04:38:26.676Z,93.80
2019-05-07T04:40:56.347Z,93.60
2019-05-07T04:43:26.370Z,93.70
2019-05-07T04:45:56.028Z,94.20
2019-05-07T04:48:26.585Z,93.90
2019-05-07T04:50:58.459Z,94.30
2019-05-07T04:53:28.100Z,93.40
2019-05-07T04:55:57.736Z,94.50
2019-05-07T04:58:27.401Z,94.00
2019-05-07T05:00:57.489Z,93.30
2019-05-07T05:03:30.456Z,94.30
2019-05-07T05:06:02.567Z,94.80
2019-05-07T05:08:32.523Z,93.80
2019-05-07T05:11:03.565Z,94.80
2019-05-07T05:13:33.580Z,94.60
2019-05-07T05:16:23.360Z,95.20
2019-05-07T05:18:54.067Z,94.70
2019-05-07T05:21:43.003Z,94.80
2019-05-07T05:24:32.976Z,94.40
2019-05-07T05:27:03.270Z,95.10
2019-05-07T05:29:34.784Z,94.70
2019-05-07T05:32:05.047Z,95.50
2019-05-07T05:34:34.772Z,94.60
2019-05-07T05:37:04.558Z,94.30
2019-05-07T05:39:34.447Z,94.20
2019-05-07T05:42:12.359Z,94.60
